Time;durP1;ratioP1;P1;durP2;ratioP2;P2;SDS_P1;SDS_P2;PMS_P1;PMS_P2;Temp;Humidity;BMP_temperature;BMP_pressure;BME280_temperature;BME280_humidity;BME280_pressure;Samples;Min_cycle;Max_cycle;Signal;HPM_P1;HPM_P2
2023/11/18 00:03:18;;;;;;;6.70;1.48;;;;;;;18.28;100.00;100922.25;20851982;28;20045;-74
2023/11/18 00:13:42;;;;;;;9.30;1.40;;;;;;;18.63;100.00;100903.97;20854824;28;20049;-74
2023/11/18 00:24:07;;;;;;;8.77;1.77;;;;;;;18.92;100.00;100884.75;20835407;28;20049;-73
2023/11/18 00:34:30;;;;;;;9.35;1.35;;;;;;;19.01;100.00;100865.00;20845670;28;20503;-74
2023/11/18 00:44:55;;;;;;;8.27;1.45;;;;;;;18.95;100.00;100849.06;20815267;28;20053;-73
2023/11/18 00:55:19;;;;;;;6.13;1.30;;;;;;;18.97;100.00;100839.22;20803207;28;20431;-72
2023/11/18 01:05:44;;;;;;;6.10;1.40;;;;;;;18.85;100.00;100818.88;20828321;28;20556;-74
2023/11/18 01:16:07;;;;;;;5.78;1.35;;;;;;;18.95;100.00;100815.16;20869876;28;20397;-74
2023/11/18 01:26:33;;;;;;;13.93;2.28;;;;;;;19.04;100.00;100785.53;20801786;28;20446;-74
2023/11/18 01:36:57;;;;;;;8.85;1.75;;;;;;;19.14;100.00;100753.25;20804978;28;20171;-74
2023/11/18 01:47:21;;;;;;;9.77;1.98;;;;;;;19.09;100.00;100746.22;20824716;28;20051;-74
2023/11/18 01:57:45;;;;;;;11.05;2.05;;;;;;;19.13;100.00;100738.09;20844987;28;20061;-74
2023/11/18 02:08:10;;;;;;;11.10;2.28;;;;;;;19.24;100.00;100722.72;20818572;28;20045;-74
2023/11/18 02:18:33;;;;;;;9.88;2.17;;;;;;;19.26;100.00;100715.53;20828834;28;20056;-74
2023/11/18 02:28:58;;;;;;;8.45;1.88;;;;;;;19.36;100.00;100714.44;20820293;28;20134;-74
2023/11/18 02:39:23;;;;;;;12.38;1.77;;;;;;;19.42;100.00;100707.16;20852795;28;20491;-74
2023/11/18 02:49:56;;;;;;;9.98;1.83;;;;;;;19.53;100.00;100706.06;20816138;28;20075;-74
2023/11/18 03:00:21;;;;;;;7.90;2.10;;;;;;;19.55;100.00;100674.78;20809150;28;20049;-73
2023/11/18 03:10:46;;;;;;;7.10;1.77;;;;;;;19.69;100.00;100675.38;20895150;28;20056;-73
2023/11/18 03:21:13;;;;;;;19.92;3.08;;;;;;;19.78;100.00;100667.97;20813773;28;20564;-73
2023/11/18 03:31:38;;;;;;;14.20;2.55;;;;;;;19.78;100.00;100667.97;20835681;28;20498;-74
2023/11/18 03:42:00;;;;;;;13.52;2.03;;;;;;;19.69;100.00;100664.66;20838699;28;20494;-73
2023/11/18 03:52:25;;;;;;;12.38;2.33;;;;;;;19.59;100.00;100663.09;20828771;28;20094;-74
2023/11/18 04:02:48;;;;;;;11.43;2.25;;;;;;;19.47;100.00;100632.13;20820093;28;20096;-74
2023/11/18 04:13:12;;;;;;;11.95;2.80;;;;;;;19.50;100.00;100624.00;20848156;28;20458;-74
2023/11/18 04:23:35;;;;;;;11.50;2.15;;;;;;;19.44;100.00;100616.94;20826871;28;20050;-74
2023/11/18 04:33:59;;;;;;;7.00;1.95;;;;;;;19.36;100.00;100615.41;20855788;28;20056;-74
2023/11/18 04:44:22;;;;;;;12.82;2.40;;;;;;;19.35;100.00;100605.59;20815533;28;20045;-74
2023/11/18 04:54:47;;;;;;;12.27;2.13;;;;;;;19.37;100.00;100588.56;20836492;28;20115;-74
2023/11/18 05:05:11;;;;;;;10.00;2.17;;;;;;;19.42;100.00;100591.16;20881112;28;20088;-74
2023/11/18 05:15:37;;;;;;;8.68;1.90;;;;;;;19.45;100.00;100580.34;20865108;28;20472;-74
2023/11/18 05:25:59;;;;;;;9.15;2.03;;;;;;;19.71;100.00;100564.56;20830859;28;20045;-74
2023/11/18 05:36:30;;;;;;;17.10;2.65;;;;;;;19.89;100.00;100557.84;20865750;28;20075;-73
2023/11/18 05:46:52;;;;;;;10.68;1.80;;;;;;;20.06;100.00;100544.03;20862464;28;20049;-74
2023/11/18 05:57:16;;;;;;;9.48;2.17;;;;;;;20.66;100.00;100539.66;20874134;28;20053;-74
2023/11/18 06:07:39;;;;;;;9.60;1.98;;;;;;;21.40;100.00;100540.97;20920189;28;20106;-74
2023/11/18 06:18:04;;;;;;;8.40;1.60;;;;;;;21.93;100.00;100539.16;20919553;28;20095;-74
2023/11/18 06:28:28;;;;;;;7.40;2.20;;;;;;;22.39;100.00;100529.50;20944175;28;20049;-74
2023/11/18 06:38:52;;;;;;;11.27;1.90;;;;;;;22.96;100.00;100526.47;20906057;28;20057;-74
2023/11/18 06:49:16;;;;;;;12.70;3.05;;;;;;;22.89;100.00;100498.03;20842805;28;20067;-74
2023/11/18 06:59:40;;;;;;;11.40;2.10;;;;;;;23.33;100.00;100482.75;20893854;28;20075;-74
2023/11/18 07:10:02;;;;;;;12.77;2.10;;;;;;;23.93;100.00;100500.00;20837204;28;20616;-73
2023/11/18 07:20:27;;;;;;;8.80;1.85;;;;;;;23.41;100.00;100516.53;20898512;28;20410;-74
2023/11/18 07:30:50;;;;;;;16.60;3.03;;;;;;;23.04;100.00;100483.94;20918539;28;20447;-74
2023/11/18 07:41:23;;;;;;;6.43;1.38;;;;;;;23.98;100.00;100444.91;20895914;28;20072;-75
2023/11/18 07:51:45;;;;;;;7.88;1.33;;;;;;;24.58;99.29;100433.16;20947612;28;20049;-74
2023/11/18 08:02:10;;;;;;;14.73;2.67;;;;;;;24.65;100.00;100413.97;20918100;28;20760;-74
2023/11/18 08:12:33;;;;;;;7.78;1.60;;;;;;;23.78;100.00;100409.88;20941003;28;20048;-74
2023/11/18 08:22:59;;;;;;;7.68;1.27;;;;;;;23.61;84.66;100361.22;20927788;28;20399;-74
2023/11/18 08:33:24;;;;;;;8.73;1.35;;;;;;;24.98;68.04;100363.75;20886282;28;20054;-74
2023/11/18 08:43:48;;;;;;;10.05;1.40;;;;;;;25.57;75.54;100327.34;20936551;28;20049;-74
2023/11/18 08:54:22;;;;;;;10.85;2.42;;;;;;;25.91;89.60;100302.09;20913144;28;20475;-74
2023/11/18 09:04:46;;;;;;;13.30;2.17;;;;;;;25.82;96.03;100321.53;20911261;28;20048;-74
2023/11/18 09:15:09;;;;;;;12.40;2.20;;;;;;;25.93;95.06;100294.78;20897415;28;20781;-74
2023/11/18 09:25:33;;;;;;;11.45;2.30;;;;;;;26.11;85.27;100256.75;20966066;28;20045;-74
2023/11/18 09:35:58;;;;;;;8.15;1.70;;;;;;;26.05;98.41;100205.69;20961892;28;20063;-74
2023/11/18 09:46:26;;;;;;;7.28;1.70;;;;;;;26.03;100.00;100198.59;20936428;28;20095;-73
2023/11/18 09:57:08;;;;;;;13.68;2.85;;;;;;;25.90;100.00;100205.66;20889954;28;20136;-73
2023/11/18 10:07:36;;;;;;;15.00;2.40;;;;;;;25.98;100.00;100214.22;20869866;28;20061;-74
2023/11/18 10:17:59;;;;;;;9.90;2.08;;;;;;;26.56;100.00;100203.63;20838996;28;20091;-74
2023/11/18 10:28:29;;;;;;;12.60;2.20;;;;;;;26.17;100.00;100199.56;20879194;28;20051;-74
2023/11/18 10:38:55;;;;;;;8.43;1.40;;;;;;;25.86;99.71;100202.28;20861999;28;20049;-74
2023/11/18 10:49:19;;;;;;;5.78;1.20;;;;;;;25.94;94.03;100221.63;20824456;28;20103;-73
2023/11/18 10:59:59;;;;;;;14.82;3.08;;;;;;;26.61;92.99;100312.56;20852192;28;20052;-74
2023/11/18 11:10:28;;;;;;;16.45;2.88;;;;;;;25.44;94.25;100358.69;20853480;28;20053;-74
2023/11/18 11:21:03;;;;;;;15.77;2.85;;;;;;;24.34;98.09;100383.06;20817184;28;20480;-73
2023/11/18 11:31:37;;;;;;;14.68;2.92;;;;;;;24.00;100.00;100385.53;20878357;28;20049;-74
2023/11/18 11:42:01;;;;;;;13.30;3.10;;;;;;;23.50;100.00;100404.81;20865494;28;20057;-73
2023/11/18 11:52:32;;;;;;;10.65;2.55;;;;;;;23.22;96.46;100436.53;20851841;28;20126;-73
2023/11/18 12:02:56;;;;;;;16.92;2.63;;;;;;;23.05;94.56;100413.00;20844967;28;20057;-73
2023/11/18 12:13:21;;;;;;;9.88;1.92;;;;;;;23.05;79.45;100384.25;20849529;28;20056;-73
2023/11/18 12:24:18;;;;;;;8.55;2.25;;;;;;;23.30;73.51;100377.84;20845572;28;20155;-74
2023/11/18 12:34:56;;;;;;;13.20;2.42;;;;;;;23.53;59.34;100388.53;20851283;28;20133;-75
2023/11/18 12:45:43;;;;;;;10.77;2.03;;;;;;;22.98;61.70;100373.78;20888932;28;20394;-74
2023/11/18 12:56:08;;;;;;;10.48;1.88;;;;;;;23.08;62.01;100355.44;20846183;28;20461;-74
2023/11/18 13:06:31;;;;;;;10.30;2.08;;;;;;;23.13;62.64;100339.97;20861937;28;20049;-74
2023/11/18 13:16:57;;;;;;;15.60;2.13;;;;;;;23.01;61.56;100331.47;20869707;28;20045;-74
2023/11/18 13:27:22;;;;;;;7.43;1.80;;;;;;;22.88;54.68;100319.47;20876838;28;20037;-73
2023/11/18 13:37:58;;;;;;;12.45;4.03;;;;;;;22.67;48.66;100331.09;20868844;28;20081;-73
2023/11/18 13:48:23;;;;;;;10.07;1.70;;;;;;;22.74;46.27;100334.44;20858893;28;20473;-74
2023/11/18 13:58:49;;;;;;;7.35;1.25;;;;;;;22.78;45.80;100342.31;20862822;28;20072;-73
2023/11/18 14:09:12;;;;;;;6.95;1.48;;;;;;;22.52;46.40;100351.41;20881018;28;20045;-74
2023/11/18 14:19:37;;;;;;;7.47;1.55;;;;;;;22.20;48.52;100387.63;20897653;28;20057;-74
2023/11/18 14:30:00;;;;;;;11.40;1.77;;;;;;;21.86;50.42;100393.38;20877496;28;20100;-74
2023/11/18 14:40:24;;;;;;;6.95;1.45;;;;;;;21.74;52.49;100438.63;20897588;28;20044;-74
2023/11/18 14:50:46;;;;;;;9.68;1.67;;;;;;;21.53;55.45;100444.75;20911717;28;20053;-74
2023/11/18 15:01:12;;;;;;;11.20;1.75;;;;;;;21.46;55.21;100444.09;20916501;28;20530;-74
2023/11/18 15:11:34;;;;;;;9.63;1.90;;;;;;;21.38;58.13;100441.66;20867477;28;20056;-74
2023/11/18 15:21:58;;;;;;;15.10;2.63;;;;;;;21.40;73.03;100455.91;20888451;28;20066;-73
2023/11/18 15:32:21;;;;;;;10.23;2.00;;;;;;;21.13;91.93;100496.19;20862633;28;20041;-74
2023/11/18 15:42:48;;;;;;;9.55;2.10;;;;;;;20.77;93.18;100517.88;20863428;28;20052;-73
2023/11/18 15:53:13;;;;;;;7.78;1.95;;;;;;;20.78;91.49;100505.34;20902550;28;20051;-74
2023/11/18 16:03:37;;;;;;;10.15;1.58;;;;;;;20.81;91.08;100510.59;20912006;28;20656;-74
2023/11/18 16:14:00;;;;;;;12.00;1.80;;;;;;;20.63;95.41;100525.44;20835365;28;20079;-73
2023/11/18 16:24:25;;;;;;;11.82;2.05;;;;;;;20.49;94.38;100536.56;20876726;28;20068;-73
2023/11/18 16:34:47;;;;;;;8.20;2.05;;;;;;;20.30;95.98;100541.56;20887845;28;20099;-73
2023/11/18 16:45:13;;;;;;;8.73;1.73;;;;;;;19.84;100.00;100575.84;20857482;28;20064;-74
2023/11/18 16:55:36;;;;;;;11.80;1.48;;;;;;;19.44;100.00;100574.13;20828441;28;20419;-74
2023/11/18 17:06:00;;;;;;;13.70;2.05;;;;;;;18.17;100.00;100576.81;20844172;28;20048;-75
2023/11/18 17:16:26;;;;;;;9.23;1.70;;;;;;;18.06;100.00;100598.34;20869228;28;20437;-75
2023/11/18 17:26:52;;;;;;;12.15;2.45;;;;;;;18.42;100.00;100574.56;20872955;28;20044;-74
2023/11/18 17:37:14;;;;;;;6.70;1.08;;;;;;;18.27;100.00;100573.94;20897934;28;20051;-74
2023/11/18 17:47:52;;;;;;;9.15;1.60;;;;;;;18.16;100.00;100575.94;20792428;28;20052;-74
2023/11/18 17:58:14;;;;;;;8.10;1.45;;;;;;;17.89;100.00;100576.41;20901973;28;20715;-75
2023/11/18 18:08:41;;;;;;;10.07;1.50;;;;;;;17.69;100.00;100562.53;20884074;28;20128;-74
2023/11/18 18:19:02;;;;;;;6.35;1.35;;;;;;;17.66;100.00;100581.25;20897199;28;20053;-74
2023/11/18 18:29:26;;;;;;;9.15;1.50;;;;;;;17.65;100.00;100591.06;20886360;28;20048;-74
2023/11/18 18:39:51;;;;;;;5.10;1.13;;;;;;;17.64;100.00;100589.31;20872467;28;20045;-75
2023/11/18 18:50:15;;;;;;;7.30;1.58;;;;;;;17.59;100.00;100585.75;20843407;28;20037;-74
2023/11/18 19:00:38;;;;;;;7.93;1.77;;;;;;;17.61;100.00;100584.00;20852915;28;20076;-74
2023/11/18 19:11:05;;;;;;;7.95;1.13;;;;;;;17.38;100.00;100565.66;20851660;28;20049;-73
2023/11/18 19:21:29;;;;;;;5.47;1.10;;;;;;;17.46;100.00;100569.06;20868645;28;20064;-73
2023/11/18 19:31:53;;;;;;;7.70;1.48;;;;;;;17.49;100.00;100552.13;20857169;28;20052;-73
2023/11/18 19:42:19;;;;;;;6.93;1.48;;;;;;;17.43;100.00;100565.59;20879364;28;20072;-73
2023/11/18 19:52:44;;;;;;;8.13;1.15;;;;;;;17.47;100.00;100559.28;20890427;28;20056;-74
2023/11/18 20:03:06;;;;;;;6.55;1.27;;;;;;;17.57;100.00;100549.34;20884841;28;20430;-74
2023/11/18 20:13:30;;;;;;;6.18;1.48;;;;;;;17.48;100.00;100540.56;20904853;28;20049;-74
2023/11/18 20:23:53;;;;;;;7.78;1.00;;;;;;;17.43;100.00;100542.44;20860293;28;20045;-74
2023/11/18 20:34:18;;;;;;;12.68;1.40;;;;;;;17.37;100.00;100537.22;20868782;28;20053;-74
2023/11/18 20:44:41;;;;;;;9.57;1.67;;;;;;;17.20;100.00;100539.22;20942114;28;20045;-75
2023/11/18 20:55:08;;;;;;;11.40;1.77;;;;;;;16.84;100.00;100551.31;20904000;28;20049;-77
2023/11/18 21:05:31;;;;;;;11.65;2.35;;;;;;;16.22;100.00;100557.34;20868234;28;20503;-78
2023/11/18 21:15:56;;;;;;;8.10;1.60;;;;;;;16.37;100.00;100538.56;20895059;28;20049;-76
2023/11/18 21:26:20;;;;;;;8.50;2.13;;;;;;;16.42;100.00;100533.16;20812204;28;20111;-77
2023/11/18 21:36:44;;;;;;;7.70;1.90;;;;;;;16.33;100.00;100520.84;20866262;28;20052;-77
2023/11/18 21:47:10;;;;;;;4.88;1.88;;;;;;;16.16;100.00;100522.81;20816437;28;20049;-76
2023/11/18 21:57:37;;;;;;;8.32;1.65;;;;;;;16.13;100.00;100533.50;20881222;28;20049;-77
2023/11/18 22:07:59;;;;;;;12.23;2.55;;;;;;;15.89;100.00;100606.50;20919809;28;20141;-76
2023/11/18 22:18:24;;;;;;;11.35;2.13;;;;;;;15.44;100.00;100615.69;20886542;28;20044;-75
2023/11/18 22:28:47;;;;;;;12.18;2.40;;;;;;;15.64;100.00;100604.94;20923325;28;20076;-74
2023/11/18 22:39:12;;;;;;;12.13;2.20;;;;;;;15.50;100.00;100594.38;20793874;28;20057;-74
2023/11/18 22:49:37;;;;;;;14.27;2.15;;;;;;;15.57;100.00;100596.13;20793630;28;20050;-74
2023/11/18 23:00:02;;;;;;;7.35;2.10;;;;;;;15.78;100.00;100585.31;20888037;28;20080;-74
2023/11/18 23:10:24;;;;;;;9.32;2.63;;;;;;;15.45;100.00;100580.22;20882489;28;20083;-75
2023/11/18 23:20:48;;;;;;;10.55;4.28;;;;;;;15.69;100.00;100582.72;20870185;28;20048;-74
2023/11/18 23:31:12;;;;;;;11.95;2.40;;;;;;;15.63;100.00;100588.09;20885096;28;20049;-74
2023/11/18 23:41:36;;;;;;;13.50;3.35;;;;;;;15.64;100.00;100581.88;20907515;28;20041;-75
2023/11/18 23:51:59;;;;;;;11.50;2.47;;;;;;;15.77;100.00;100599.50;20867876;28;20053;-74
